イエローナイフ の空港の天気 - METARとTAF

イエローナイフ空港 ( CYZF / YZF ) - カナダ ノースウエスト準州イエローナイフ
飛行場実況気象(Metar)
観測時間01/19 04:00 MST (01/19 11:00 UTC)
風向・風速東南東 5m/s
視程10km以上
天気現象弱い雪
全天の4割程度の雲 雲底高度 550m
全天の8割程度の雲 雲底高度 4880m
気温-24℃
湿度76%
気圧1034.4hPa
METARCYZF 191100Z 12009KT 15SM -SN SCT018 BKN160 M24/M27 A3044 RMK SC4AC3 SLP344
過去の天気等 Google飛行場航空写真 Wunderground天気予報

過去48時間のMETAR

飛行場予報(TAF)
発表時間: 1/18 22:38 MST (1/19 05:38 UTC)
予報対象時間: 18日23時 MST ~ 19日23時 MST
風向・風速東 3m/s
視程10km以上
天気現象弱い雪
全天を覆う雲 雲底高度 610m
18日23時 MST ~ 19日3時 MST に一時的に
視程10km以上
天気現象運行に影響にある天気現象が終了
全天を覆う雲 雲底高度 760m
19日3時 MST から
風向・風速東 4m/s
視程10km以上
天気現象弱い雪
全天の8割程度の雲 雲底高度 610m
全天を覆う雲 雲底高度 6710m
19日3時 MST ~ 19日6時 MST に一時的に
視程10km以上
天気現象運行に影響にある天気現象が終了
全天の8割程度の雲 雲底高度 760m
全天を覆う雲 雲底高度 6710m
19日6時 MST から
風向・風速東南東 5m/s
視程10km以上
全天の4割程度の雲 雲底高度 610m
全天を覆う雲 雲底高度 6710m
19日6時 MST ~ 19日12時 MST に一時的に
全天の8割程度の雲 雲底高度 610m
19日12時 MST から
風向・風速東南東 6m/s 瞬間風速 11m/s
視程10km以上
全天の8割程度の雲 雲底高度 4570m
19日20時 MST から
風向・風速東南東 6m/s 瞬間風速 11m/s
視程8050m
天気現象弱い雪
全天の8割程度の雲 雲底高度 1220m
全天を覆う雲 雲底高度 3050m
TAF CYZF 190538Z 1906/2006 09005KT P6SM -SN OVC020
TEMPO 1906/1910 P6SM NSW OVC025
FM191000 10008KT P6SM -SN BKN020 OVC220
TEMPO 1910/1913 P6SM NSW BKN025 OVC220
FM191300 11010KT P6SM SCT020 OVC220
TEMPO 1913/1919 BKN020
FM191900 12012G22KT P6SM BKN150
FM200300 12012G22KT 5SM -SN BKN040 OVC100 RMK NXT FCST BY 191200Z